WetterOnline ( https://www.wetteronline.de )

Wetter aktuell Magdeburg

Aktuelles Wetter: Magdeburg (85m)

6-stündlich | Neueste Meldungen
Ortszeit Temperatur Wetter
Fr, 28.01. 1:00 4.6° C wolkig
Do, 27.01. 19:00 6.2° C leicht bewölkt
Do, 27.01. 13:00 5.9° C bewölkt
Do, 27.01. 7:00 3.7° C bedeckt
Do, 27.01. 1:00 3.6° C bewölkt
Mi, 26.01. 19:00 2.5° C bedeckt
Mi, 26.01. 13:00 1.9° C bedeckt
Mi, 26.01. 7:00 2.2° C bedeckt
Ortszeit Temperatur Wetter
Fr, 28.01. 1:10 4.8° C bewölkt
Fr, 28.01. 1:00 4.6° C wolkig
Fr, 28.01. 0:50 4.6° C wolkig
Fr, 28.01. 0:40 4.6° C wolkig
Fr, 28.01. 0:30 4.7° C bedeckt
Fr, 28.01. 0:20 4.7° C bedeckt
Fr, 28.01. 0:00 4.8° C bewölkt
Do, 27.01. 23:30 4.9° C leicht bewölkt
Do, 27.01. 23:00 5.2° C leicht bewölkt
Do, 27.01. 22:30 5.2° C bewölkt
Ortszeit Relative Feuchte Sichtweite
Fr, 28.01. 1:00 78% 35 km
Do, 27.01. 19:00 83% 45 km
Do, 27.01. 13:00 81% 50 km
Do, 27.01. 7:00 80% 15 km
Do, 27.01. 1:00 85% 21 km
Mi, 26.01. 19:00 87% 6 km
Mi, 26.01. 13:00 87% 5.0 km
Mi, 26.01. 7:00 94% 6 km
Ortszeit Relative Feuchte Sichtweite
Fr, 28.01. 1:10 77% -
Fr, 28.01. 1:00 78% 35 km
Fr, 28.01. 0:50 78% -
Fr, 28.01. 0:40 77% -
Fr, 28.01. 0:30 79% 35 km
Fr, 28.01. 0:20 79% -
Fr, 28.01. 0:00 80% 35 km
Do, 27.01. 23:30 77% 40 km
Do, 27.01. 23:00 78% 35 km
Do, 27.01. 22:30 79% 45 km
Ortszeit Niederschlagsmenge Niederschlagsart
Fr, 28.01. 1:00 0.1 l/m2 in 6 Std. Regen
Do, 27.01. 19:00 0.9 l/m2 in 12 Std. Regen
Do, 27.01. 13:00 0.0 l/m2 in 6 Std. -
Do, 27.01. 7:00 0.0 l/m2 in 12 Std. -
Do, 27.01. 1:00 0.0 l/m2 in 6 Std. -
Mi, 26.01. 19:00 0.0 l/m2 in 12 Std. -
Mi, 26.01. 13:00 0.0 l/m2 in 6 Std. -
Mi, 26.01. 7:00 0.1 l/m2 in 12 Std. -
Ortszeit Niederschlagsmenge Niederschlagsart
Fr, 28.01. 1:10 keine Meldung -
Fr, 28.01. 1:00 0.1 l/m2 in 1 Std. Regen
Fr, 28.01. 0:50 keine Meldung -
Fr, 28.01. 0:40 keine Meldung -
Fr, 28.01. 0:30 0.1 l/m2 in 1 Std. Schneeregen
Fr, 28.01. 0:20 keine Meldung -
Fr, 28.01. 0:00 0.1 l/m2 in 1 Std. Regen
Do, 27.01. 23:30 0.0 l/m2 in 1 Std. -
Do, 27.01. 23:00 0.0 l/m2 in 1 Std. -
Do, 27.01. 22:30 0.0 l/m2 in 1 Std. -
Ortszeit Stärke Spitze Richtung
km/h Bft. km/h Grad Sektor
Fr, 28.01. 1:00 22 4 58 290° W
Do, 27.01. 19:00 18 3 50 280° W
Do, 27.01. 13:00 25 4 54 260° W
Do, 27.01. 7:00 22 4 50 250° W
Do, 27.01. 1:00 14 3 36 260° W
Mi, 26.01. 19:00 18 3 32 260° W
Mi, 26.01. 13:00 13 3 31 290° W
Mi, 26.01. 7:00 9 2 22 250° W
Ortszeit Stärke Spitze Richtung
km/h Bft. km/h Grad Sektor
Fr, 28.01. 1:10 26 4 - 290° W
Fr, 28.01. 1:00 22 4 50 290° W
Fr, 28.01. 0:50 22 4 - 290° W
Fr, 28.01. 0:40 22 4 - 280° W
Fr, 28.01. 0:30 20 4 48 300° NW
Fr, 28.01. 0:20 20 4 - 300° NW
Fr, 28.01. 0:00 24 4 57 290° W
Do, 27.01. 23:30 22 4 43 280° W
Do, 27.01. 23:00 25 4 47 280° W
Do, 27.01. 22:30 22 4 47 290° W
Ortszeit Untergrenze Bedeckung Gattung
total tief tief mittel hoch
Fr, 28.01. 1:00 780 m 6/8 6/8 - - -
Do, 27.01. 19:00 2100 m 4/8 4/8 - - -
Do, 27.01. 13:00 570 m 7/8 7/8 - - -
Do, 27.01. 7:00 570 m 8/8 8/8 - - -
Do, 27.01. 1:00 450 m 7/8 7/8 - - -
Mi, 26.01. 19:00 330 m 8/8 8/8 - - -
Mi, 26.01. 13:00 300 m 8/8 8/8 - - -
Mi, 26.01. 7:00 570 m 8/8 8/8 - - -
Ortszeit Bedeckungsgrad in Achtel und Wolkenuntergrenze
Fr, 28.01. 1:10 7
Fr, 28.01. 1:00 4(780m) 6(930m)
Fr, 28.01. 0:50 4(780m) 6(930m)
Fr, 28.01. 0:40 5
Fr, 28.01. 0:30 5(660m) 7(900m) 8(1050m)
Fr, 28.01. 0:20 5(660m) 7(900m) 8(1050m)
Fr, 28.01. 0:00 1(570m) 4(780m) 7(990m)
Do, 27.01. 23:30 1(840m)
Do, 27.01. 23:00 3(1260m)
Do, 27.01. 22:30 6(1110m) 7(1320m)
Ortszeit Luftdruck NN (hPa) Tendenz (hPa in 3 Std.)
Fr, 28.01. 1:00 1018 + 1,5
Do, 27.01. 19:00 1016 + 0,1
Do, 27.01. 13:00 1017 - 1,6
Do, 27.01. 7:00 1020 - 2,3
Do, 27.01. 1:00 1025 - 1,3
Mi, 26.01. 19:00 1028 - 0,9
Mi, 26.01. 13:00 1030 + 0,3
Mi, 26.01. 7:00 1030 - 0,9
Ortszeit Luftdruck NN (hPa) Tendenz (hPa in 3 Std.)
Fr, 28.01. 1:10 1018 keine Meldung
Fr, 28.01. 1:00 1018 + 1,5
Fr, 28.01. 0:50 1018 keine Meldung
Fr, 28.01. 0:40 1018 keine Meldung
Fr, 28.01. 0:30 1018 + 1,6
Fr, 28.01. 0:20 1018 keine Meldung
Fr, 28.01. 0:00 1017 + 1,2
Do, 27.01. 23:30 1017 + 1,3
Do, 27.01. 23:00 1017 + 1,3
Do, 27.01. 22:30 1017 + 1,7
Ortszeit Schneehöhe (cm)
Fr, 28.01. 1:00 0
Do, 27.01. 19:00 0
Do, 27.01. 13:00 0
Do, 27.01. 7:00 0
Do, 27.01. 1:00 0
Mi, 26.01. 19:00 0
Mi, 26.01. 13:00 0
Mi, 26.01. 7:00 0
Ortszeit Schneehöhe (cm)
Fr, 28.01. 1:10 0
Fr, 28.01. 1:00 0
Fr, 28.01. 0:50 0
Fr, 28.01. 0:40 0
Fr, 28.01. 0:30 0
Fr, 28.01. 0:20 0
Fr, 28.01. 0:00 0
Do, 27.01. 23:30 0
Do, 27.01. 23:00 0
Do, 27.01. 22:30 0
Link zu dieser Seite / Seite empfehlen

Das Wetter in ...